Time;durP1;ratioP1;P1;durP2;ratioP2;P2;SDS_P1;SDS_P2;PMS_P1;PMS_P2;Temp;Humidity;BMP_temperature;BMP_pressure;BME280_temperature;BME280_humidity;BME280_pressure;Samples;Min_cycle;Max_cycle;Signal;HPM_P1;HPM_P2
2023/11/12 00:00:09;;;;;;;7.60;7.00;;;10.00;99.90;;;;;;5096476;28;20265;-80
2023/11/12 00:02:36;;;;;;;6.65;6.10;;;10.00;99.90;;;;;;5095793;28;20215;-80
2023/11/12 00:05:02;;;;;;;7.55;6.85;;;10.00;99.90;;;;;;5096574;28;20676;-81
2023/11/12 00:07:31;;;;;;;7.25;6.65;;;10.00;99.90;;;;;;5096009;28;20752;-80
2023/11/12 00:09:58;;;;;;;9.32;6.63;;;10.00;99.90;;;;;;5095402;28;20251;-79
2023/11/12 00:12:27;;;;;;;8.00;7.30;;;10.00;99.90;;;;;;5097748;28;20364;-81
2023/11/12 00:14:54;;;;;;;7.25;6.53;;;10.00;99.90;;;;;;5098850;28;20228;-81
2023/11/12 00:17:21;;;;;;;7.35;6.65;;;10.00;99.90;;;;;;5098939;28;20238;-82
2023/11/12 00:19:48;;;;;;;7.78;6.97;;;10.00;99.90;;;;;;5097179;28;20553;-81
2023/11/12 00:22:20;;;;;;;8.02;7.22;;;10.00;99.90;;;;;;5097683;28;20219;-82
2023/11/12 00:24:49;;;;;;;7.63;6.82;;;10.00;99.90;;;;;;5097887;28;20609;-81
2023/11/12 00:27:18;;;;;;;7.57;6.90;;;10.00;99.90;;;;;;5097024;28;20219;-81
2023/11/12 00:29:45;;;;;;;11.45;8.82;;;10.00;99.90;;;;;;5096229;28;20234;-80
2023/11/12 00:32:12;;;;;;;11.43;9.35;;;10.00;99.90;;;;;;5096184;28;20229;-80
2023/11/12 00:34:39;;;;;;;8.75;7.95;;;10.00;99.90;;;;;;5095311;28;20235;-79
2023/11/12 00:37:07;;;;;;;10.27;8.68;;;10.00;99.90;;;;;;5095442;28;20223;-80
2023/11/12 00:39:35;;;;;;;8.88;7.97;;;10.00;99.90;;;;;;5094961;28;20227;-81
2023/11/12 00:42:03;;;;;;;8.90;8.10;;;10.10;99.90;;;;;;5095564;28;20235;-81
2023/11/12 00:44:30;;;;;;;13.82;11.80;;;10.10;99.90;;;;;;5095226;28;20310;-81
2023/11/12 00:46:57;;;;;;;22.48;18.67;;;10.10;99.90;;;;;;5095410;28;20314;-82
2023/11/12 00:49:23;;;;;;;13.48;12.13;;;10.00;99.90;;;;;;5095477;28;20311;-81
2023/11/12 00:51:50;;;;;;;10.43;9.43;;;10.00;99.90;;;;;;5094855;28;20249;-81
2023/11/12 00:54:17;;;;;;;10.02;9.00;;;10.10;99.90;;;;;;5095037;28;20303;-81
2023/11/12 00:56:45;;;;;;;8.50;7.70;;;10.00;99.90;;;;;;5094911;28;20306;-80
2023/11/12 00:59:13;;;;;;;8.32;7.53;;;10.10;99.90;;;;;;5095325;28;20790;-80
2023/11/12 01:01:40;;;;;;;8.63;7.82;;;10.10;99.90;;;;;;5095029;28;20563;-81
2023/11/12 01:04:07;;;;;;;7.80;7.10;;;10.10;99.90;;;;;;5095926;28;20220;-81
2023/11/12 01:06:34;;;;;;;8.30;7.50;;;10.10;99.90;;;;;;5094859;28;20220;-81
2023/11/12 01:09:01;;;;;;;7.97;7.28;;;10.10;99.90;;;;;;5096376;28;20245;-81
2023/11/12 01:11:31;;;;;;;8.77;7.97;;;10.10;99.90;;;;;;5095774;28;20245;-80
2023/11/12 01:13:58;;;;;;;8.95;8.15;;;10.10;99.90;;;;;;5095333;28;20307;-80
2023/11/12 01:16:26;;;;;;;7.78;7.07;;;10.00;99.90;;;;;;5095521;28;20233;-80
2023/11/12 01:18:53;;;;;;;8.95;8.15;;;10.10;99.90;;;;;;5094973;28;20722;-79
2023/11/12 01:21:20;;;;;;;9.70;8.70;;;10.10;99.90;;;;;;5095859;28;20243;-80
2023/11/12 01:23:49;;;;;;;8.73;7.82;;;10.00;99.90;;;;;;5094504;28;20242;-80
2023/11/12 01:26:16;;;;;;;8.27;7.53;;;10.00;99.90;;;;;;5096031;28;20230;-80
2023/11/12 01:28:43;;;;;;;8.73;7.50;;;10.00;99.90;;;;;;5095510;28;20306;-80
2023/11/12 01:31:10;;;;;;;8.65;7.50;;;10.00;99.90;;;;;;5096336;28;20223;-80
2023/11/12 01:33:39;;;;;;;10.82;8.23;;;10.00;99.90;;;;;;5081874;28;20239;-82
2023/11/12 01:36:07;;;;;;;8.15;7.35;;;10.00;99.90;;;;;;5077552;28;20769;-81
2023/11/12 01:38:37;;;;;;;7.20;6.50;;;10.00;99.90;;;;;;5076409;28;20220;-81
2023/11/12 01:41:04;;;;;;;7.70;6.97;;;10.00;99.90;;;;;;5078839;28;20556;-80
2023/11/12 01:43:31;;;;;;;7.20;6.15;;;10.00;99.90;;;;;;5076191;28;20224;-81
2023/11/12 01:46:04;;;;;;;6.70;6.05;;;10.00;99.90;;;;;;5081270;28;20306;-81
2023/11/12 01:48:35;;;;;;;6.75;6.03;;;10.00;99.90;;;;;;5096270;28;20241;-79
2023/11/12 01:51:04;;;;;;;5.93;5.43;;;10.10;99.90;;;;;;5095569;28;20227;-79
2023/11/12 01:53:33;;;;;;;7.38;5.95;;;10.10;99.90;;;;;;5095771;28;20695;-79
2023/11/12 01:56:01;;;;;;;6.70;6.00;;;10.10;99.90;;;;;;5086445;28;20307;-80
2023/11/12 01:58:30;;;;;;;7.03;6.43;;;10.10;99.90;;;;;;5075097;28;20303;-79
2023/11/12 02:00:58;;;;;;;7.45;6.43;;;10.00;99.90;;;;;;5074871;28;20235;-80
2023/11/12 02:03:27;;;;;;;7.03;6.43;;;10.10;99.90;;;;;;5075065;28;20212;-79
2023/11/12 02:05:53;;;;;;;5.93;5.45;;;10.20;99.90;;;;;;5073285;28;20689;-79
2023/11/12 02:08:23;;;;;;;6.00;5.50;;;10.20;99.90;;;;;;5085135;28;20540;-79
2023/11/12 02:10:50;;;;;;;5.90;5.40;;;10.30;99.90;;;;;;5094448;28;20227;-79
2023/11/12 02:13:21;;;;;;;5.45;4.95;;;10.30;99.90;;;;;;5095635;28;20545;-79
2023/11/12 02:15:50;;;;;;;6.35;4.88;;;10.30;99.90;;;;;;5095890;28;20234;-78
2023/11/12 02:18:17;;;;;;;5.82;5.30;;;10.40;99.90;;;;;;5097402;28;20608;-79
2023/11/12 02:20:44;;;;;;;5.28;4.72;;;10.40;99.90;;;;;;5095438;28;20298;-79
2023/11/12 02:23:12;;;;;;;5.47;4.97;;;10.50;99.90;;;;;;5095087;28;20342;-79
2023/11/12 02:25:41;;;;;;;5.40;4.90;;;10.50;99.90;;;;;;5095571;28;20227;-80
2023/11/12 02:28:10;;;;;;;5.07;4.68;;;10.50;99.90;;;;;;5095904;28;20215;-78
2023/11/12 02:30:37;;;;;;;5.15;4.75;;;10.60;99.90;;;;;;5094307;28;20337;-79
2023/11/12 02:33:05;;;;;;;6.50;5.97;;;10.60;99.90;;;;;;5094923;28;20257;-79
2023/11/12 02:35:33;;;;;;;5.53;5.03;;;10.60;99.90;;;;;;5094097;28;20318;-80
2023/11/12 02:38:00;;;;;;;4.72;4.20;;;10.60;99.90;;;;;;5093954;28;20223;-80
2023/11/12 02:40:28;;;;;;;5.35;4.85;;;10.60;99.90;;;;;;5094592;28;20306;-79
2023/11/12 02:42:57;;;;;;;5.47;4.97;;;10.60;99.90;;;;;;5094089;28;20219;-79
2023/11/12 02:45:24;;;;;;;5.20;4.70;;;10.60;99.90;;;;;;5095807;28;20227;-79
2023/11/12 02:47:51;;;;;;;5.70;5.10;;;10.60;99.90;;;;;;5093556;28;20226;-79
2023/11/12 02:50:32;;;;;;;5.47;5.05;;;10.70;99.90;;;;;;5084085;28;20234;-79
2023/11/12 02:53:04;;;;;;;5.57;5.18;;;10.60;99.90;;;;;;5094799;28;20258;-80
2023/11/12 02:55:31;;;;;;;5.55;5.05;;;10.60;99.90;;;;;;5093923;28;20227;-80
2023/11/12 02:58:00;;;;;;;4.90;4.50;;;10.60;99.90;;;;;;5094376;28;20223;-81
2023/11/12 03:00:28;;;;;;;5.35;4.95;;;10.60;99.90;;;;;;5097444;28;20311;-79
2023/11/12 03:02:57;;;;;;;5.60;5.10;;;10.60;99.90;;;;;;5102222;28;20230;-79
2023/11/12 03:05:25;;;;;;;5.70;5.25;;;10.60;99.90;;;;;;5099272;28;20233;-79
2023/11/12 03:07:52;;;;;;;5.00;4.55;;;10.60;99.90;;;;;;5087585;28;20234;-80
2023/11/12 03:10:19;;;;;;;6.15;5.55;;;10.60;99.90;;;;;;5073110;28;20306;-80
2023/11/12 03:12:46;;;;;;;5.10;4.70;;;10.50;99.90;;;;;;5074795;28;20560;-80
2023/11/12 03:15:37;;;;;;;5.35;4.65;;;10.50;99.90;;;;;;5073360;28;20224;-78
2023/11/12 03:18:04;;;;;;;5.78;5.28;;;10.50;99.90;;;;;;5075800;28;20318;-80
2023/11/12 03:20:31;;;;;;;7.30;6.60;;;10.40;99.90;;;;;;5076440;28;20227;-79
2023/11/12 03:22:58;;;;;;;6.28;5.72;;;10.40;99.90;;;;;;5078492;28;20285;-79
2023/11/12 03:25:25;;;;;;;6.20;5.70;;;10.40;99.90;;;;;;5078627;28;20234;-81
2023/11/12 03:27:58;;;;;;;5.10;4.70;;;10.40;99.90;;;;;;5078205;28;20323;-79
2023/11/12 03:30:27;;;;;;;5.68;5.18;;;10.40;99.90;;;;;;5076964;28;20226;-80
2023/11/12 03:32:54;;;;;;;6.22;5.63;;;10.40;99.90;;;;;;5076028;28;20228;-80
2023/11/12 03:35:21;;;;;;;4.93;4.40;;;10.40;99.90;;;;;;5076825;28;20323;-79
2023/11/12 03:37:49;;;;;;;7.43;6.82;;;10.40;99.90;;;;;;5093276;28;20254;-79
2023/11/12 03:40:16;;;;;;;6.03;5.43;;;10.40;99.90;;;;;;5076848;28;20255;-80
2023/11/12 03:42:43;;;;;;;6.22;5.72;;;10.40;99.90;;;;;;5076683;28;20228;-80
2023/11/12 03:45:14;;;;;;;5.28;4.88;;;10.40;99.90;;;;;;5091424;28;20251;-79
2023/11/12 03:47:42;;;;;;;5.00;4.60;;;10.40;99.90;;;;;;5076853;28;20247;-79
2023/11/12 03:50:09;;;;;;;6.07;5.68;;;10.40;99.90;;;;;;5075832;28;20223;-79
2023/11/12 03:52:38;;;;;;;5.50;5.05;;;10.30;99.90;;;;;;5067721;28;20286;-81
2023/11/12 03:55:06;;;;;;;6.22;5.53;;;10.40;99.90;;;;;;5088197;28;20219;-78
2023/11/12 03:57:34;;;;;;;6.55;5.95;;;10.30;99.90;;;;;;5076176;28;20231;-78
2023/11/12 04:00:01;;;;;;;6.15;5.55;;;10.20;99.90;;;;;;5070206;28;20238;-79
2023/11/12 04:02:28;;;;;;;6.88;6.18;;;10.30;99.90;;;;;;5085843;28;20215;-79
2023/11/12 04:04:57;;;;;;;5.45;4.95;;;10.30;99.90;;;;;;5076014;28;20631;-80
2023/11/12 04:07:24;;;;;;;5.30;4.90;;;10.30;99.90;;;;;;5075602;28;20546;-80
2023/11/12 04:09:51;;;;;;;5.80;5.25;;;10.30;99.90;;;;;;5076416;28;20579;-80
2023/11/12 04:12:19;;;;;;;6.55;5.93;;;10.30;99.90;;;;;;5076669;28;20311;-80
2023/11/12 04:14:46;;;;;;;5.10;4.60;;;10.30;99.90;;;;;;5075837;28;20224;-79
2023/11/12 04:17:13;;;;;;;5.57;5.00;;;10.30;99.90;;;;;;5075847;28;20277;-79
2023/11/12 04:19:40;;;;;;;5.65;4.95;;;10.30;99.90;;;;;;5075308;28;20303;-78
2023/11/12 04:22:09;;;;;;;6.35;5.85;;;10.30;99.90;;;;;;5082935;28;20254;-78
2023/11/12 04:24:38;;;;;;;6.72;5.30;;;10.30;99.90;;;;;;5075645;28;20224;-78
2023/11/12 04:27:06;;;;;;;6.20;5.70;;;10.20;99.90;;;;;;5075817;28;20314;-78
2023/11/12 04:29:33;;;;;;;5.65;5.15;;;10.30;99.90;;;;;;5074851;28;20227;-78
2023/11/12 04:32:00;;;;;;;6.38;5.88;;;10.20;99.90;;;;;;5070069;28;20314;-78
2023/11/12 04:34:27;;;;;;;5.53;5.03;;;10.30;99.90;;;;;;5087154;28;20232;-78
2023/11/12 04:36:55;;;;;;;5.05;4.65;;;10.30;99.90;;;;;;5075500;28;20227;-78
2023/11/12 04:39:24;;;;;;;4.75;4.35;;;10.30;99.90;;;;;;5075785;28;20228;-78
2023/11/12 04:41:50;;;;;;;5.50;5.10;;;10.30;99.90;;;;;;5075387;28;20230;-78
2023/11/12 04:44:17;;;;;;;5.68;5.18;;;10.40;99.90;;;;;;5084017;28;20223;-78
2023/11/12 04:46:46;;;;;;;4.95;4.55;;;10.40;99.90;;;;;;5095503;28;20617;-78
2023/11/12 04:49:13;;;;;;;5.68;5.18;;;10.40;99.90;;;;;;5095656;28;20219;-78
2023/11/12 04:51:40;;;;;;;6.05;5.32;;;10.40;99.90;;;;;;5095316;28;20555;-78
2023/11/12 04:54:11;;;;;;;5.70;5.20;;;10.40;99.90;;;;;;5095517;28;20223;-78
2023/11/12 04:56:45;;;;;;;5.90;5.40;;;10.50;99.90;;;;;;5081372;28;20243;-78
2023/11/12 04:59:12;;;;;;;5.40;4.90;;;10.50;99.90;;;;;;5075260;28;20224;-79
2023/11/12 05:01:39;;;;;;;5.07;4.57;;;10.40;99.90;;;;;;5074860;28;20258;-78
2023/11/12 05:04:06;;;;;;;5.90;5.40;;;10.50;99.90;;;;;;5075386;28;20303;-78
2023/11/12 05:06:33;;;;;;;6.60;5.97;;;10.50;99.90;;;;;;5074574;28;20310;-79
2023/11/12 05:09:00;;;;;;;7.30;6.60;;;10.50;99.90;;;;;;5074690;28;20220;-78
2023/11/12 05:11:27;;;;;;;9.55;8.57;;;10.50;99.90;;;;;;5074121;28;20299;-78
2023/11/12 05:13:56;;;;;;;5.55;5.10;;;10.50;99.90;;;;;;5074042;28;20251;-78
2023/11/12 05:16:26;;;;;;;7.85;6.53;;;10.50;99.90;;;;;;5074824;28;20223;-78
2023/11/12 05:18:53;;;;;;;5.43;4.93;;;10.50;99.90;;;;;;5074533;28;20235;-79
2023/11/12 05:21:20;;;;;;;6.55;5.95;;;10.50;99.90;;;;;;5074868;28;20307;-79
2023/11/12 05:23:46;;;;;;;6.30;5.72;;;10.50;99.90;;;;;;5074269;28;20322;-79
2023/11/12 05:26:14;;;;;;;6.30;5.70;;;10.40;99.90;;;;;;5074455;28;20228;-79
2023/11/12 05:28:41;;;;;;;7.57;6.55;;;10.40;99.90;;;;;;5074527;28;20220;-79
2023/11/12 05:31:10;;;;;;;6.32;5.72;;;10.40;99.90;;;;;;5074688;28;20227;-79
2023/11/12 05:33:37;;;;;;;9.23;6.80;;;10.40;99.90;;;;;;5074082;28;20231;-79
2023/11/12 05:36:04;;;;;;;6.32;5.75;;;10.40;99.90;;;;;;5074414;28;20303;-79
2023/11/12 05:38:31;;;;;;;7.05;6.35;;;10.40;99.90;;;;;;5074300;28;20226;-78
2023/11/12 05:40:57;;;;;;;6.75;6.15;;;10.30;99.90;;;;;;5072977;28;20228;-78
2023/11/12 05:43:24;;;;;;;6.97;6.47;;;10.30;99.90;;;;;;5074573;28;20220;-79
2023/11/12 05:45:51;;;;;;;7.45;6.75;;;10.30;99.90;;;;;;5073895;28;20303;-79
2023/11/12 05:48:19;;;;;;;7.15;6.55;;;10.30;99.90;;;;;;5074328;28;20216;-79
2023/11/12 05:50:48;;;;;;;7.07;6.38;;;10.30;99.90;;;;;;5073491;28;20219;-79
2023/11/12 05:53:16;;;;;;;7.00;6.40;;;10.30;99.90;;;;;;5074043;28;20223;-79
2023/11/12 05:55:43;;;;;;;6.93;6.32;;;10.20;99.90;;;;;;5073447;28;20236;-79
2023/11/12 05:58:10;;;;;;;8.07;7.38;;;10.20;99.90;;;;;;5074125;28;20254;-79
2023/11/12 06:00:37;;;;;;;7.93;7.20;;;10.20;99.90;;;;;;5073650;28;20224;-79
2023/11/12 06:03:04;;;;;;;7.43;6.82;;;10.20;99.90;;;;;;5073828;28;20227;-78
2023/11/12 06:05:33;;;;;;;7.18;6.00;;;10.20;99.90;;;;;;5074117;28;20314;-79
2023/11/12 06:08:03;;;;;;;7.32;6.70;;;10.20;99.90;;;;;;5073487;28;20224;-79
2023/11/12 06:10:31;;;;;;;6.40;5.90;;;10.20;99.90;;;;;;5073685;28;20223;-80
2023/11/12 06:12:58;;;;;;;6.68;6.00;;;10.20;99.90;;;;;;5073665;28;20215;-80
2023/11/12 06:15:26;;;;;;;7.13;6.40;;;10.20;99.90;;;;;;5073925;28;20297;-80
2023/11/12 06:17:53;;;;;;;6.93;6.32;;;10.20;99.90;;;;;;5073271;28;20228;-80
2023/11/12 06:20:20;;;;;;;7.28;6.63;;;10.20;99.90;;;;;;5073592;28;20262;-80
2023/11/12 06:22:48;;;;;;;7.45;6.50;;;10.20;99.90;;;;;;5073219;28;20263;-80
2023/11/12 06:25:15;;;;;;;8.27;7.55;;;10.20;99.90;;;;;;5073504;28;20224;-80
2023/11/12 06:27:42;;;;;;;6.75;6.15;;;10.20;99.90;;;;;;5073170;28;20223;-80
2023/11/12 06:30:11;;;;;;;6.35;5.70;;;10.20;99.90;;;;;;5073575;28;20258;-80
2023/11/12 06:32:38;;;;;;;6.80;6.20;;;10.20;99.90;;;;;;5073693;28;20669;-80
2023/11/12 06:35:06;;;;;;;7.78;7.13;;;10.30;99.90;;;;;;5072817;28;20247;-80
2023/11/12 06:37:32;;;;;;;6.82;6.22;;;10.20;99.90;;;;;;5073566;28;20447;-79
2023/11/12 06:40:01;;;;;;;6.57;6.07;;;10.30;99.90;;;;;;5073188;28;20250;-78
2023/11/12 06:42:28;;;;;;;7.63;6.80;;;10.30;99.90;;;;;;5073408;28;20316;-79
2023/11/12 06:44:54;;;;;;;6.57;5.97;;;10.30;99.90;;;;;;5072758;28;20242;-79
2023/11/12 06:47:21;;;;;;;6.03;5.53;;;10.30;99.90;;;;;;5073400;28;20303;-79
2023/11/12 06:49:48;;;;;;;6.60;6.00;;;10.30;99.90;;;;;;5073019;28;20228;-79
2023/11/12 06:52:15;;;;;;;7.07;6.38;;;10.30;99.90;;;;;;5073321;28;20293;-78
2023/11/12 06:54:42;;;;;;;6.97;6.28;;;10.30;99.90;;;;;;5070713;28;20307;-79
2023/11/12 06:57:10;;;;;;;6.05;5.55;;;10.30;99.90;;;;;;5080742;28;20230;-79
2023/11/12 06:59:37;;;;;;;6.40;5.40;;;10.40;99.90;;;;;;5072814;28;20365;-80
2023/11/12 07:02:04;;;;;;;6.50;5.82;;;10.30;99.90;;;;;;5072728;28;20251;-79
2023/11/12 07:04:31;;;;;;;7.03;6.43;;;10.40;99.90;;;;;;5073201;28;20231;-78
2023/11/12 07:06:59;;;;;;;9.52;6.72;;;10.40;99.90;;;;;;5072469;28;20246;-78
2023/11/12 07:09:26;;;;;;;6.97;6.35;;;10.40;99.90;;;;;;5073151;28;20592;-78
2023/11/12 07:11:53;;;;;;;5.68;5.18;;;10.40;99.90;;;;;;5072482;28;20240;-79
2023/11/12 07:14:21;;;;;;;6.63;6.03;;;10.40;99.90;;;;;;5073199;28;20226;-80
2023/11/12 07:16:49;;;;;;;6.43;5.82;;;10.40;99.90;;;;;;5072972;28;20220;-80
2023/11/12 07:19:16;;;;;;;6.60;6.00;;;10.40;99.90;;;;;;5072986;28;20573;-80
2023/11/12 07:21:43;;;;;;;5.85;5.35;;;10.40;99.90;;;;;;5072977;28;20281;-80
2023/11/12 07:24:10;;;;;;;6.70;5.45;;;10.40;99.90;;;;;;5071836;28;20222;-79
2023/11/12 07:26:37;;;;;;;6.38;5.82;;;10.40;99.90;;;;;;5072977;28;20259;-79
2023/11/12 07:29:05;;;;;;;5.70;5.18;;;10.40;99.90;;;;;;5072687;28;20356;-80
2023/11/12 07:31:33;;;;;;;6.35;5.75;;;10.50;99.90;;;;;;5073173;28;20230;-78
2023/11/12 07:34:00;;;;;;;6.15;5.55;;;10.50;99.90;;;;;;5072419;28;20235;-79
2023/11/12 07:36:27;;;;;;;5.35;4.85;;;10.50;99.90;;;;;;5072801;28;20224;-78
2023/11/12 07:38:54;;;;;;;5.43;5.03;;;10.50;99.90;;;;;;5072220;28;20247;-78
2023/11/12 07:41:24;;;;;;;6.80;6.13;;;10.50;99.90;;;;;;5072432;28;20303;-78
2023/11/12 07:43:51;;;;;;;6.28;5.68;;;10.50;99.90;;;;;;5072187;28;20235;-79
2023/11/12 07:46:18;;;;;;;6.63;6.03;;;10.50;99.90;;;;;;5072781;28;20705;-80
2023/11/12 07:48:46;;;;;;;5.95;5.43;;;10.50;99.90;;;;;;5072917;28;20216;-79
2023/11/12 07:51:13;;;;;;;5.40;4.90;;;10.50;99.90;;;;;;5071783;28;20224;-80
2023/11/12 07:53:40;;;;;;;5.63;5.10;;;10.60;99.90;;;;;;5072519;28;20311;-79
2023/11/12 07:56:09;;;;;;;7.30;6.65;;;10.60;99.90;;;;;;5072004;28;20316;-78
2023/11/12 07:58:36;;;;;;;6.55;6.03;;;10.60;99.90;;;;;;5072590;28;20224;-79
2023/11/12 08:01:05;;;;;;;6.15;5.55;;;10.60;99.90;;;;;;5071843;28;20239;-79
2023/11/12 08:03:32;;;;;;;5.90;5.30;;;10.60;99.90;;;;;;5073026;28;20216;-80
2023/11/12 08:06:01;;;;;;;7.00;5.10;;;10.60;99.90;;;;;;5075865;28;20340;-79
2023/11/12 08:08:28;;;;;;;5.95;5.40;;;10.60;99.90;;;;;;5075657;28;20307;-80
2023/11/12 08:10:59;;;;;;;5.97;5.47;;;10.70;99.90;;;;;;5075719;28;20228;-80
2023/11/12 08:13:26;;;;;;;6.18;5.68;;;10.70;99.90;;;;;;5076007;28;20250;-80
2023/11/12 08:15:53;;;;;;;5.78;5.20;;;10.70;99.90;;;;;;5075416;28;20314;-80
2023/11/12 08:18:20;;;;;;;5.72;5.30;;;10.70;99.90;;;;;;5075789;28;20246;-80
2023/11/12 08:20:48;;;;;;;6.15;5.63;;;10.70;99.90;;;;;;5075806;28;20289;-79
2023/11/12 08:23:16;;;;;;;6.68;5.82;;;10.70;99.90;;;;;;5074849;28;20607;-79
2023/11/12 08:25:44;;;;;;;6.63;5.95;;;10.70;99.90;;;;;;5075064;28;20227;-79
2023/11/12 08:28:12;;;;;;;7.78;5.82;;;10.70;99.90;;;;;;5075516;28;20251;-81
2023/11/12 08:30:39;;;;;;;5.45;5.05;;;10.70;99.90;;;;;;5075666;28;20227;-81
2023/11/12 08:33:06;;;;;;;4.97;4.57;;;10.80;99.90;;;;;;5074848;28;20223;-81
2023/11/12 08:35:34;;;;;;;6.25;5.50;;;10.80;99.90;;;;;;5075607;28;20246;-79
2023/11/12 08:38:05;;;;;;;5.55;5.05;;;10.70;99.90;;;;;;5074716;28;20227;-80
2023/11/12 08:40:34;;;;;;;5.35;4.85;;;10.70;99.90;;;;;;5075710;28;20238;-78
2023/11/12 08:43:01;;;;;;;5.38;4.88;;;10.70;99.90;;;;;;5074630;28;20688;-79
2023/11/12 08:45:28;;;;;;;5.80;5.30;;;10.80;99.90;;;;;;5074987;28;20251;-78
2023/11/12 08:47:55;;;;;;;5.80;5.30;;;10.80;99.90;;;;;;5075394;28;20232;-79
2023/11/12 08:50:22;;;;;;;4.75;4.35;;;10.80;99.90;;;;;;5075122;28;20289;-79
2023/11/12 08:52:49;;;;;;;4.90;4.50;;;10.80;99.90;;;;;;5075381;28;20244;-79
2023/11/12 08:55:18;;;;;;;5.45;5.05;;;10.80;99.90;;;;;;5074537;28;20627;-80
2023/11/12 08:57:46;;;;;;;8.30;6.45;;;10.80;99.90;;;;;;5075400;28;20605;-81
2023/11/12 09:00:14;;;;;;;5.53;4.95;;;10.80;99.90;;;;;;5074154;28;20311;-80
2023/11/12 09:02:43;;;;;;;5.30;4.45;;;10.80;99.90;;;;;;5076631;28;20686;-79
2023/11/12 09:05:10;;;;;;;5.38;4.88;;;10.90;99.90;;;;;;5074714;28;20712;-80
2023/11/12 09:07:38;;;;;;;5.07;4.63;;;10.90;99.90;;;;;;5074988;28;20232;-81
2023/11/12 09:10:06;;;;;;;5.22;4.72;;;11.00;99.90;;;;;;5074309;28;20311;-81
2023/11/12 09:12:33;;;;;;;5.22;4.55;;;11.00;99.90;;;;;;5075131;28;20220;-81
2023/11/12 09:15:06;;;;;;;4.60;3.92;;;11.00;99.90;;;;;;5073248;28;20262;-80
2023/11/12 09:17:32;;;;;;;4.15;3.75;;;11.00;99.90;;;;;;5074745;28;20226;-81
2023/11/12 09:19:59;;;;;;;4.22;3.83;;;11.10;99.90;;;;;;5074853;28;20224;-78
2023/11/12 09:22:27;;;;;;;5.18;4.68;;;11.20;99.90;;;;;;5074261;28;20243;-79
2023/11/12 09:24:56;;;;;;;4.75;4.35;;;11.20;99.90;;;;;;5074553;28;20261;-79
2023/11/12 09:27:24;;;;;;;6.80;5.80;;;11.20;99.90;;;;;;5074209;28;20219;-79
2023/11/12 09:29:51;;;;;;;6.72;6.05;;;11.20;99.90;;;;;;5074287;28;20224;-78
2023/11/12 09:32:21;;;;;;;5.15;4.68;;;11.30;99.90;;;;;;5073989;28;20228;-79
2023/11/12 09:34:48;;;;;;;6.80;6.20;;;11.40;99.90;;;;;;5074397;28;20231;-79
2023/11/12 09:37:14;;;;;;;5.65;5.15;;;11.30;99.90;;;;;;5073894;28;20315;-80
2023/11/12 09:39:41;;;;;;;6.40;5.75;;;11.40;99.90;;;;;;5074422;28;20564;-81
2023/11/12 09:42:12;;;;;;;5.90;5.40;;;11.40;99.90;;;;;;5073622;28;20297;-81
2023/11/12 09:44:42;;;;;;;5.72;5.25;;;11.40;99.90;;;;;;5074296;28;20228;-80
2023/11/12 09:47:28;;;;;;;5.93;5.32;;;11.40;99.90;;;;;;5073500;28;20307;-79
2023/11/12 09:49:56;;;;;;;5.18;4.68;;;11.50;99.90;;;;;;5074213;28;20228;-78
2023/11/12 09:52:23;;;;;;;5.68;5.18;;;11.40;99.90;;;;;;5065169;28;20299;-80
2023/11/12 09:54:51;;;;;;;6.07;5.38;;;11.50;99.90;;;;;;5074252;28;20232;-79
2023/11/12 09:57:19;;;;;;;5.32;4.03;;;11.50;99.90;;;;;;5073762;28;20236;-80
2023/11/12 09:59:46;;;;;;;4.97;4.47;;;11.40;99.90;;;;;;5073879;28;20216;-81
2023/11/12 10:02:13;;;;;;;6.40;5.70;;;11.30;99.90;;;;;;5073523;28;20231;-79
2023/11/12 10:04:44;;;;;;;4.90;4.03;;;11.30;99.90;;;;;;5074427;28;20228;-79
2023/11/12 10:07:12;;;;;;;5.07;3.95;;;11.30;99.90;;;;;;5071460;28;20247;-80
2023/11/12 10:09:43;;;;;;;4.32;3.92;;;11.30;99.90;;;;;;5081202;28;20257;-79
2023/11/12 10:12:13;;;;;;;4.78;4.20;;;11.30;99.90;;;;;;5073317;28;20269;-80
2023/11/12 10:14:41;;;;;;;4.20;3.80;;;11.30;99.90;;;;;;5066440;28;20261;-80
2023/11/12 10:17:14;;;;;;;4.20;3.90;;;11.30;99.90;;;;;;5086139;28;20224;-79
2023/11/12 10:19:54;;;;;;;4.45;4.05;;;11.30;99.90;;;;;;5073567;28;20244;-80
2023/11/12 10:22:37;;;;;;;4.93;2.83;;;11.30;99.90;;;;;;5073267;28;20296;-80
2023/11/12 10:25:05;;;;;;;2.30;2.10;;;11.30;99.90;;;;;;5073592;28;20224;-79
2023/11/12 10:27:34;;;;;;;2.38;2.15;;;11.30;99.90;;;;;;5072710;28;20217;-81
2023/11/12 10:30:17;;;;;;;4.15;3.85;;;11.30;99.90;;;;;;5073423;28;20265;-80
2023/11/12 10:32:45;;;;;;;4.40;4.00;;;11.30;99.90;;;;;;5073007;28;20254;-81
2023/11/12 10:35:12;;;;;;;4.38;3.97;;;11.30;99.90;;;;;;5073576;28;20232;-79
2023/11/12 10:37:55;;;;;;;3.60;3.30;;;11.30;99.90;;;;;;5073064;28;20235;-80
2023/11/12 10:40:21;;;;;;;3.42;3.13;;;11.20;99.90;;;;;;5072972;28;20717;-79
2023/11/12 10:42:53;;;;;;;2.92;2.72;;;11.20;99.90;;;;;;5073319;28;20232;-79
2023/11/12 10:45:20;;;;;;;4.57;3.05;;;11.20;99.90;;;;;;5073587;28;20315;-80
2023/11/12 10:47:48;;;;;;;3.10;2.90;;;11.20;99.90;;;;;;5073208;28;20220;-80
2023/11/12 10:50:16;;;;;;;4.20;3.80;;;11.20;99.90;;;;;;5072781;28;20255;-80
2023/11/12 10:52:46;;;;;;;3.88;3.53;;;11.20;99.90;;;;;;5072911;28;20227;-81
2023/11/12 10:55:14;;;;;;;4.97;4.38;;;11.20;99.90;;;;;;5073009;28;20224;-80
2023/11/12 10:57:44;;;;;;;4.03;3.72;;;11.20;99.90;;;;;;5072114;28;20233;-80
2023/11/12 11:00:12;;;;;;;3.60;3.40;;;11.20;99.90;;;;;;5073731;28;20289;-81
2023/11/12 11:02:45;;;;;;;4.28;3.80;;;11.20;99.90;;;;;;5072534;28;20624;-79
2023/11/12 11:05:13;;;;;;;4.75;4.35;;;11.30;99.90;;;;;;5073377;28;20578;-80
2023/11/12 11:07:41;;;;;;;5.28;4.60;;;11.30;99.90;;;;;;5072699;28;20224;-81
2023/11/12 11:10:12;;;;;;;4.60;4.20;;;11.30;99.90;;;;;;5073162;28;20607;-80
2023/11/12 11:12:39;;;;;;;4.60;4.20;;;11.40;99.90;;;;;;5072742;28;20532;-81
2023/11/12 11:15:41;;;;;;;5.47;4.97;;;11.40;99.90;;;;;;5073130;28;20307;-80
2023/11/12 11:18:08;;;;;;;6.00;5.50;;;11.40;99.90;;;;;;5072561;28;20223;-80
2023/11/12 11:21:05;;;;;;;5.07;4.50;;;11.40;99.90;;;;;;5072440;28;20315;-79
2023/11/12 11:23:40;;;;;;;5.47;4.93;;;11.50;99.90;;;;;;5072267;28;20569;-80
2023/11/12 11:26:32;;;;;;;4.85;4.13;;;11.40;99.90;;;;;;5073048;28;20330;-81
2023/11/12 11:29:16;;;;;;;5.13;4.72;;;11.50;99.90;;;;;;5072689;28;20228;-80
2023/11/12 11:32:13;;;;;;;6.28;5.68;;;11.50;99.90;;;;;;5072826;28;20319;-81
2023/11/12 11:34:42;;;;;;;6.70;6.10;;;11.60;99.90;;;;;;5072676;28;20216;-80
2023/11/12 11:37:12;;;;;;;10.82;9.82;;;11.60;99.90;;;;;;5072800;28;20281;-81
2023/11/12 11:39:42;;;;;;;10.40;9.40;;;11.50;99.90;;;;;;5074167;28;20220;-81
2023/11/12 11:42:13;;;;;;;10.30;7.82;;;11.50;99.90;;;;;;5076685;28;20307;-79
2023/11/12 11:44:49;;;;;;;9.30;8.50;;;11.50;99.90;;;;;;5076314;28;20223;-81
2023/11/12 11:47:18;;;;;;;9.88;8.98;;;11.50;99.90;;;;;;5076415;28;20215;-80
2023/11/12 11:49:46;;;;;;;10.93;9.55;;;11.50;99.90;;;;;;5076259;28;20243;-80
2023/11/12 11:52:20;;;;;;;9.25;8.43;;;11.60;99.90;;;;;;5076395;28;20304;-80
2023/11/12 11:54:53;;;;;;;9.20;8.27;;;11.60;99.90;;;;;;5075319;28;20232;-80
2023/11/12 11:57:25;;;;;;;8.18;7.35;;;11.60;99.90;;;;;;5076584;28;20222;-79
2023/11/12 11:59:52;;;;;;;9.95;8.95;;;11.60;99.90;;;;;;5076397;28;20227;-78
2023/11/12 12:02:21;;;;;;;8.95;8.13;;;11.60;99.90;;;;;;5076596;28;20319;-80
2023/11/12 12:04:51;;;;;;;9.43;8.63;;;11.60;99.90;;;;;;5075857;28;20234;-80
2023/11/12 12:07:20;;;;;;;10.02;8.85;;;11.60;99.90;;;;;;5066845;28;20665;-80
2023/11/12 12:09:46;;;;;;;10.68;9.73;;;11.60;99.90;;;;;;5075848;28;20252;-81
2023/11/12 12:12:21;;;;;;;10.60;9.60;;;11.60;99.90;;;;;;5076703;28;20666;-80
2023/11/12 12:14:49;;;;;;;11.73;10.32;;;11.70;99.90;;;;;;5075847;28;20227;-79
2023/11/12 12:17:17;;;;;;;9.20;8.30;;;11.70;99.90;;;;;;5076360;28;20559;-79
2023/11/12 12:19:44;;;;;;;8.85;8.05;;;11.70;99.90;;;;;;5075680;28;20259;-80
2023/11/12 12:22:11;;;;;;;8.63;7.82;;;11.70;99.90;;;;;;5075812;28;20219;-80
2023/11/12 12:24:38;;;;;;;10.63;9.63;;;11.70;99.90;;;;;;5075071;28;20232;-80
2023/11/12 12:27:09;;;;;;;14.70;10.18;;;11.80;99.90;;;;;;5075932;28;20232;-80
2023/11/12 12:29:38;;;;;;;11.95;10.80;;;11.80;99.90;;;;;;5075709;28;20216;-80
2023/11/12 12:32:15;;;;;;;14.85;10.35;;;11.80;99.90;;;;;;5075320;28;20244;-80
2023/11/12 12:34:43;;;;;;;9.25;8.35;;;11.90;99.90;;;;;;5075379;28;20699;-80
2023/11/12 12:37:11;;;;;;;9.93;8.50;;;11.90;99.90;;;;;;5075601;28;20227;-80
2023/11/12 12:39:52;;;;;;;10.85;9.85;;;11.90;99.90;;;;;;5072909;28;20227;-80
2023/11/12 12:42:20;;;;;;;8.82;8.13;;;11.90;99.90;;;;;;5082359;28;20220;-80
2023/11/12 12:44:50;;;;;;;12.98;8.65;;;11.90;99.90;;;;;;5075167;28;20223;-80
2023/11/12 12:47:36;;;;;;;9.15;8.35;;;11.90;99.90;;;;;;5075387;28;20307;-80
2023/11/12 12:50:14;;;;;;;7.97;7.18;;;11.90;99.90;;;;;;5075481;28;20650;-80
2023/11/12 12:52:44;;;;;;;7.43;6.82;;;11.90;99.90;;;;;;5075754;28;20218;-80